createdAt,value
2022-10-08T00:01:16.691Z,95.96
2022-10-08T00:03:47.170Z,96.62
2022-10-08T00:06:18.384Z,96.89
2022-10-08T00:08:50.474Z,96.95
2022-10-08T00:11:22.244Z,96.50
2022-10-08T00:13:51.498Z,97.47
2022-10-08T00:16:21.608Z,98.55
2022-10-08T00:18:51.136Z,98.47
2022-10-08T00:21:22.038Z,97.76
2022-10-08T00:23:51.141Z,96.31
2022-10-08T00:26:23.614Z,96.70
2022-10-08T00:28:52.874Z,96.66
2022-10-08T00:31:22.770Z,98.27
2022-10-08T00:33:51.671Z,99.34
2022-10-08T00:36:20.793Z,98.44
2022-10-08T00:38:49.323Z,98.82
2022-10-08T00:41:20.738Z,100.00
2022-10-08T00:43:50.515Z,99.87
2022-10-08T00:46:25.307Z,98.72
2022-10-08T00:49:01.017Z,98.80
2022-10-08T00:51:30.901Z,99.31
2022-10-08T00:53:59.173Z,99.41
2022-10-08T00:56:27.206Z,98.82
2022-10-08T00:58:55.004Z,98.17
2022-10-08T01:01:23.043Z,98.96
2022-10-08T01:03:50.799Z,98.33
2022-10-08T01:06:27.235Z,98.49
2022-10-08T01:09:03.862Z,99.42
2022-10-08T01:11:44.441Z,99.13
2022-10-08T01:14:25.195Z,100.00
2022-10-08T01:17:01.451Z,97.51
2022-10-08T01:20:04.754Z,99.06
2022-10-08T01:22:44.538Z,98.91
2022-10-08T01:25:34.164Z,98.86
2022-10-08T01:28:12.225Z,98.37
2022-10-08T01:30:46.319Z,98.33
2022-10-08T01:33:23.725Z,97.49
2022-10-08T01:35:57.234Z,98.82
2022-10-08T01:38:28.111Z,96.32
2022-10-08T01:41:00.274Z,96.32
2022-10-08T01:43:33.638Z,96.09
2022-10-08T01:46:04.425Z,96.55
2022-10-08T01:48:36.046Z,98.07
2022-10-08T01:51:08.735Z,98.54
2022-10-08T01:53:40.557Z,99.37
2022-10-08T01:56:12.121Z,99.92
2022-10-08T01:58:49.872Z,98.94
2022-10-08T02:01:24.510Z,100.00
2022-10-08T02:04:10.864Z,100.00
2022-10-08T02:06:43.646Z,100.00
2022-10-08T02:09:12.211Z,100.00
2022-10-08T02:11:40.214Z,100.00
2022-10-08T02:14:09.433Z,99.72
2022-10-08T02:16:46.755Z,100.00
2022-10-08T02:19:24.009Z,100.00
2022-10-08T02:21:54.096Z,99.96
2022-10-08T02:24:30.483Z,100.00
2022-10-08T02:27:01.719Z,100.00
2022-10-08T02:29:37.381Z,100.00
2022-10-08T02:32:11.234Z,100.00
2022-10-08T02:34:44.345Z,100.00
2022-10-08T02:37:16.986Z,99.96
2022-10-08T02:39:51.520Z,100.00
2022-10-08T02:42:23.569Z,100.00
2022-10-08T02:44:57.630Z,100.00
2022-10-08T02:47:30.345Z,100.00
2022-10-08T02:50:02.669Z,100.00
2022-10-08T02:52:35.291Z,100.00
2022-10-08T02:55:08.228Z,100.00
2022-10-08T02:57:42.396Z,99.60
2022-10-08T03:00:13.223Z,99.64
2022-10-08T03:02:45.070Z,99.65
2022-10-08T03:05:18.193Z,100.00
2022-10-08T03:07:48.411Z,100.00
2022-10-08T03:10:16.282Z,100.00
2022-10-08T03:12:44.199Z,99.63
2022-10-08T03:15:15.890Z,100.00
2022-10-08T03:17:46.934Z,100.00
2022-10-08T03:20:15.489Z,99.52
2022-10-08T03:22:43.289Z,99.37
2022-10-08T03:25:11.130Z,99.83
2022-10-08T03:27:38.801Z,99.40
2022-10-08T03:30:07.613Z,100.00
2022-10-08T03:32:36.642Z,100.00
2022-10-08T03:35:04.558Z,100.00
2022-10-08T03:37:32.221Z,100.00
2022-10-08T03:39:59.916Z,100.00
2022-10-08T03:42:27.665Z,100.00
2022-10-08T03:44:55.808Z,100.00
2022-10-08T03:47:23.595Z,100.00
2022-10-08T03:49:52.665Z,100.00
2022-10-08T03:52:20.361Z,100.00
2022-10-08T03:54:48.123Z,100.00
2022-10-08T03:57:15.808Z,100.00
2022-10-08T03:59:43.526Z,100.00
2022-10-08T04:02:11.277Z,100.00
2022-10-08T04:04:39.035Z,100.00
2022-10-08T04:07:08.088Z,100.00
2022-10-08T04:09:35.748Z,100.00
2022-10-08T04:12:03.417Z,100.00
2022-10-08T04:14:31.133Z,100.00
2022-10-08T04:16:58.803Z,100.00
2022-10-08T04:19:26.505Z,100.00
2022-10-08T04:21:54.154Z,100.00
2022-10-08T04:24:23.210Z,100.00
2022-10-08T04:26:50.899Z,100.00
2022-10-08T04:29:18.604Z,100.00
2022-10-08T04:31:46.270Z,100.00
2022-10-08T04:34:14.104Z,100.00
2022-10-08T04:36:41.791Z,100.00
2022-10-08T04:39:09.615Z,100.00
2022-10-08T04:41:38.636Z,100.00
2022-10-08T04:44:06.457Z,100.00
2022-10-08T04:46:34.267Z,100.00
2022-10-08T04:49:02.152Z,100.00
2022-10-08T04:51:30.478Z,100.00
2022-10-08T04:53:59.126Z,100.00
2022-10-08T04:56:28.980Z,100.00
2022-10-08T04:58:59.315Z,100.00
2022-10-08T05:01:28.492Z,100.00
2022-10-08T05:03:57.733Z,100.00
2022-10-08T05:06:28.280Z,100.00
2022-10-08T05:08:56.541Z,100.00
2022-10-08T05:11:25.285Z,100.00
2022-10-08T05:13:54.927Z,100.00
2022-10-08T05:16:25.150Z,100.00
2022-10-08T05:18:53.562Z,100.00
2022-10-08T05:21:23.730Z,100.00
2022-10-08T05:23:55.657Z,100.00
2022-10-08T05:26:41.521Z,100.00
2022-10-08T05:29:13.099Z,100.00
2022-10-08T05:31:42.174Z,100.00
2022-10-08T05:34:16.576Z,100.00
2022-10-08T05:36:44.526Z,100.00
2022-10-08T05:39:12.605Z,100.00
2022-10-08T05:41:40.293Z,100.00
2022-10-08T05:44:10.700Z,100.00
2022-10-08T05:46:39.544Z,100.00
2022-10-08T05:49:16.466Z,100.00
2022-10-08T05:51:44.191Z,100.00
2022-10-08T05:54:11.937Z,100.00
2022-10-08T05:56:39.885Z,100.00
2022-10-08T05:59:07.578Z,100.00
2022-10-08T06:01:35.490Z,100.00
2022-10-08T06:04:08.863Z,100.00
2022-10-08T06:06:39.608Z,100.00
2022-10-08T06:09:08.883Z,100.00
2022-10-08T06:11:38.151Z,100.00
2022-10-08T06:14:07.461Z,100.00
2022-10-08T06:16:35.938Z,100.00
2022-10-08T06:19:05.160Z,100.00
2022-10-08T06:21:33.604Z,100.00
2022-10-08T06:24:05.122Z,100.00
2022-10-08T06:26:35.938Z,100.00
2022-10-08T06:29:06.204Z,100.00
2022-10-08T06:31:34.526Z,100.00
2022-10-08T06:34:04.227Z,100.00
2022-10-08T06:36:32.828Z,100.00
2022-10-08T06:39:03.980Z,100.00
2022-10-08T06:41:33.290Z,100.00
2022-10-08T06:44:01.438Z,100.00
2022-10-08T06:46:31.155Z,100.00
2022-10-08T06:49:00.368Z,100.00
2022-10-08T06:51:29.011Z,100.00
2022-10-08T06:54:02.838Z,100.00
2022-10-08T06:56:36.287Z,100.00
2022-10-08T06:59:04.570Z,100.00
2022-10-08T07:01:34.045Z,100.00
2022-10-08T07:04:03.271Z,100.00
2022-10-08T07:06:31.251Z,100.00
2022-10-08T07:09:00.966Z,100.00
2022-10-08T07:11:29.242Z,100.00
2022-10-08T07:13:58.667Z,100.00
2022-10-08T07:16:27.879Z,100.00
2022-10-08T07:18:58.290Z,100.00
2022-10-08T07:21:26.470Z,100.00
2022-10-08T07:23:54.176Z,100.00
2022-10-08T07:26:23.231Z,100.00
2022-10-08T07:28:52.694Z,100.00
2022-10-08T07:31:24.066Z,100.00
2022-10-08T07:33:51.918Z,100.00
2022-10-08T07:36:24.027Z,100.00
2022-10-08T07:38:55.158Z,100.00
2022-10-08T07:41:23.178Z,100.00
2022-10-08T07:43:52.322Z,100.00
2022-10-08T07:46:21.982Z,100.00
2022-10-08T07:48:50.707Z,100.00
2022-10-08T07:51:20.517Z,100.00
2022-10-08T07:53:48.489Z,100.00
2022-10-08T07:56:18.222Z,100.00
2022-10-08T07:58:47.242Z,100.00
2022-10-08T08:01:17.898Z,100.00
2022-10-08T08:03:47.077Z,100.00
2022-10-08T08:06:16.966Z,99.96
2022-10-08T08:08:46.000Z,100.00
2022-10-08T08:11:15.617Z,99.59
2022-10-08T08:13:43.929Z,100.00
2022-10-08T08:16:13.194Z,99.95
2022-10-08T08:18:42.921Z,98.97
2022-10-08T08:21:15.144Z,99.33
2022-10-08T08:23:44.962Z,98.01
2022-10-08T08:26:14.943Z,97.96
2022-10-08T08:28:42.941Z,98.36
2022-10-08T08:31:12.901Z,97.56
2022-10-08T08:33:41.325Z,96.26
2022-10-08T08:36:09.821Z,96.07
2022-10-08T08:38:39.579Z,95.39
2022-10-08T08:41:18.549Z,93.36
2022-10-08T08:43:48.450Z,93.49
2022-10-08T08:46:22.266Z,93.66
2022-10-08T08:48:54.522Z,91.51
2022-10-08T08:51:22.371Z,90.65
2022-10-08T08:53:51.609Z,88.99
2022-10-08T08:56:23.598Z,89.34
2022-10-08T08:59:00.297Z,88.51
2022-10-08T09:01:34.572Z,88.06
2022-10-08T09:04:10.605Z,88.90
2022-10-08T09:06:40.646Z,86.86
2022-10-08T09:09:21.610Z,86.39
2022-10-08T09:11:49.518Z,88.46
2022-10-08T09:14:31.947Z,87.16
2022-10-08T09:17:01.668Z,85.73
2022-10-08T09:19:29.502Z,84.78
2022-10-08T09:21:57.234Z,84.30
2022-10-08T09:24:29.679Z,83.74
2022-10-08T09:26:57.815Z,84.58
2022-10-08T09:29:34.253Z,84.03
2022-10-08T09:32:01.970Z,83.52
2022-10-08T09:34:29.710Z,79.53
2022-10-08T09:37:05.593Z,79.39
2022-10-08T09:39:37.110Z,79.96
2022-10-08T09:42:17.221Z,79.28
2022-10-08T09:44:47.015Z,78.26
2022-10-08T09:47:16.405Z,78.35
2022-10-08T09:49:49.705Z,76.69
2022-10-08T09:52:20.511Z,77.20
2022-10-08T09:54:53.283Z,76.66
2022-10-08T09:57:22.783Z,77.19
2022-10-08T09:59:53.964Z,77.13
2022-10-08T10:02:31.127Z,77.65
2022-10-08T10:05:00.190Z,74.22
2022-10-08T10:07:39.470Z,75.14
2022-10-08T10:10:19.074Z,74.74
2022-10-08T10:12:50.416Z,72.59
2022-10-08T10:15:23.138Z,73.75
2022-10-08T10:17:53.266Z,72.79
2022-10-08T10:20:27.292Z,72.01
2022-10-08T10:23:00.039Z,73.97
2022-10-08T10:25:38.042Z,71.58
2022-10-08T10:28:09.620Z,71.22
2022-10-08T10:30:49.917Z,73.68
2022-10-08T10:33:21.579Z,73.38
2022-10-08T10:35:53.793Z,73.60
2022-10-08T10:38:25.083Z,72.58
2022-10-08T10:41:05.751Z,71.14
2022-10-08T10:43:44.060Z,68.86
2022-10-08T10:46:25.158Z,71.00
2022-10-08T10:48:52.915Z,68.84
2022-10-08T10:51:41.281Z,65.76
2022-10-08T10:54:43.945Z,65.00
2022-10-08T10:57:22.546Z,65.47
2022-10-08T11:00:03.826Z,67.65
2022-10-08T11:02:36.150Z,67.11
2022-10-08T11:05:08.619Z,67.78
2022-10-08T11:07:52.261Z,64.94
2022-10-08T11:10:33.177Z,64.95
2022-10-08T11:13:12.594Z,62.48
2022-10-08T11:15:45.703Z,60.29
2022-10-08T11:18:24.944Z,59.54
2022-10-08T11:21:10.781Z,58.85
2022-10-08T11:23:55.736Z,60.23
2022-10-08T11:26:31.757Z,59.86
2022-10-08T11:29:15.261Z,61.14
2022-10-08T11:31:43.999Z,57.78
2022-10-08T11:34:22.410Z,58.77
2022-10-08T11:37:03.643Z,56.94
2022-10-08T11:39:40.388Z,59.20
2022-10-08T11:42:16.077Z,57.80
2022-10-08T11:44:45.161Z,57.83
2022-10-08T11:47:47.145Z,56.73
2022-10-08T11:50:25.558Z,53.38
2022-10-08T11:52:55.845Z,55.32
2022-10-08T11:55:26.483Z,57.45
2022-10-08T11:58:08.687Z,55.56
2022-10-08T12:00:44.318Z,55.96
2022-10-08T12:03:27.038Z,55.30
2022-10-08T12:05:56.990Z,55.54
2022-10-08T12:08:51.575Z,56.37
2022-10-08T12:11:50.755Z,56.87
2022-10-08T12:14:48.692Z,58.66
2022-10-08T12:17:18.537Z,59.13
2022-10-08T12:20:18.825Z,58.63
2022-10-08T12:23:01.037Z,59.23
2022-10-08T12:26:08.940Z,60.57
2022-10-08T12:28:54.541Z,60.11
2022-10-08T12:31:29.681Z,60.57
2022-10-08T12:34:04.997Z,59.73
2022-10-08T12:36:56.702Z,60.20
2022-10-08T12:39:35.998Z,58.50
2022-10-08T12:42:13.774Z,59.03
2022-10-08T12:44:54.099Z,56.53
2022-10-08T12:47:37.151Z,58.85
2022-10-08T12:50:25.604Z,59.40
2022-10-08T12:52:53.621Z,57.68
2022-10-08T12:55:24.301Z,54.83
2022-10-08T12:57:53.398Z,54.27
2022-10-08T13:00:24.320Z,53.67
2022-10-08T13:03:03.434Z,55.12
2022-10-08T13:05:37.660Z,53.08
2022-10-08T13:08:34.877Z,53.30
2022-10-08T13:11:05.284Z,53.68
2022-10-08T13:13:36.661Z,52.10
2022-10-08T13:16:06.045Z,50.65
2022-10-08T13:18:36.533Z,51.79
2022-10-08T13:21:07.873Z,51.22
2022-10-08T13:23:37.252Z,50.17
2022-10-08T13:26:05.058Z,49.84
2022-10-08T13:28:59.055Z,49.57
2022-10-08T13:31:24.322Z,50.27
2022-10-08T13:33:52.445Z,50.76
2022-10-08T13:36:24.263Z,50.08
2022-10-08T13:38:52.042Z,49.83
2022-10-08T13:41:24.116Z,49.81
2022-10-08T13:43:52.146Z,49.09
2022-10-08T13:46:19.892Z,50.92
2022-10-08T13:48:47.653Z,52.15
2022-10-08T13:51:15.346Z,53.18
2022-10-08T13:53:45.595Z,51.41
2022-10-08T13:56:13.549Z,50.82
2022-10-08T13:58:41.289Z,50.03
2022-10-08T14:01:09.086Z,49.33
2022-10-08T14:03:36.785Z,49.18
2022-10-08T14:06:04.715Z,48.42
2022-10-08T14:08:32.705Z,48.85
2022-10-08T14:11:02.147Z,49.35
2022-10-08T14:13:30.306Z,49.67
2022-10-08T14:15:58.140Z,49.49
2022-10-08T14:18:26.545Z,48.47
2022-10-08T14:20:54.388Z,49.13
2022-10-08T14:23:22.159Z,48.71
2022-10-08T14:25:49.939Z,48.71
2022-10-08T14:28:19.087Z,49.81
2022-10-08T14:30:46.810Z,48.97
2022-10-08T14:33:14.523Z,50.69
2022-10-08T14:35:42.597Z,49.10
2022-10-08T14:38:10.255Z,49.04
2022-10-08T14:40:38.944Z,49.08
2022-10-08T14:43:06.621Z,49.56
2022-10-08T14:45:35.991Z,48.56
2022-10-08T14:48:03.777Z,50.14
2022-10-08T14:50:31.798Z,47.89
2022-10-08T14:52:59.547Z,47.71
2022-10-08T14:55:27.401Z,48.37
2022-10-08T14:57:55.149Z,47.73
2022-10-08T15:00:22.912Z,48.25
2022-10-08T15:02:52.084Z,48.32
2022-10-08T15:05:19.997Z,47.77
2022-10-08T15:07:47.953Z,46.73
2022-10-08T15:10:16.065Z,47.12
2022-10-08T15:12:43.737Z,46.50
2022-10-08T15:15:11.889Z,47.23
2022-10-08T15:17:39.687Z,47.66
2022-10-08T15:20:09.879Z,46.18
2022-10-08T15:22:37.551Z,47.19
2022-10-08T15:25:05.974Z,47.88
2022-10-08T15:27:33.617Z,47.79
2022-10-08T15:30:01.345Z,47.43
2022-10-08T15:32:30.693Z,48.67
2022-10-08T15:34:58.543Z,48.80
2022-10-08T15:37:27.689Z,48.68
2022-10-08T15:39:55.358Z,48.22
2022-10-08T15:42:23.017Z,48.90
2022-10-08T15:44:50.729Z,48.94
2022-10-08T15:47:18.456Z,48.39
2022-10-08T15:49:46.315Z,47.85
2022-10-08T15:52:16.480Z,47.46
2022-10-08T15:54:46.295Z,48.39
2022-10-08T15:57:16.606Z,48.74
2022-10-08T15:59:44.408Z,49.48
2022-10-08T16:02:17.150Z,49.11
2022-10-08T16:04:47.100Z,49.16
2022-10-08T16:07:14.913Z,49.06
2022-10-08T16:09:42.642Z,48.39
2022-10-08T16:12:11.966Z,49.22
2022-10-08T16:14:39.666Z,49.54
2022-10-08T16:17:07.649Z,49.05
2022-10-08T16:19:35.434Z,49.10
2022-10-08T16:22:03.985Z,48.84
2022-10-08T16:24:31.683Z,49.08
2022-10-08T16:26:59.403Z,48.61
2022-10-08T16:29:28.750Z,49.36
2022-10-08T16:31:56.404Z,49.71
2022-10-08T16:34:27.030Z,49.90
2022-10-08T16:36:54.798Z,50.47
2022-10-08T16:39:24.290Z,51.24
2022-10-08T16:41:52.304Z,52.39
2022-10-08T16:44:22.076Z,52.04
2022-10-08T16:46:52.947Z,52.38
2022-10-08T16:49:25.428Z,52.09
2022-10-08T16:51:54.602Z,51.69
2022-10-08T16:54:22.683Z,52.45
2022-10-08T16:56:50.776Z,53.50
2022-10-08T16:59:20.538Z,53.93
2022-10-08T17:01:51.776Z,53.82
2022-10-08T17:04:20.527Z,54.53
2022-10-08T17:06:48.453Z,54.17
2022-10-08T17:09:16.354Z,54.67
2022-10-08T17:11:44.089Z,55.03
2022-10-08T17:14:12.637Z,54.85
2022-10-08T17:16:43.113Z,54.93
2022-10-08T17:19:13.265Z,55.31
2022-10-08T17:21:41.529Z,55.44
2022-10-08T17:24:10.675Z,55.58
2022-10-08T17:26:38.630Z,55.58
2022-10-08T17:29:08.883Z,57.85
2022-10-08T17:31:37.562Z,57.83
2022-10-08T17:34:06.329Z,58.56
2022-10-08T17:36:37.394Z,61.09
2022-10-08T17:39:07.734Z,61.31
2022-10-08T17:41:37.559Z,60.82
2022-10-08T17:44:08.392Z,60.21
2022-10-08T17:46:38.484Z,61.34
2022-10-08T17:49:06.506Z,63.00
2022-10-08T17:51:35.671Z,64.28
2022-10-08T17:54:05.757Z,65.21
2022-10-08T17:56:34.098Z,64.79
2022-10-08T17:59:02.181Z,65.48
2022-10-08T18:01:32.010Z,65.70
2022-10-08T18:04:02.249Z,66.83
2022-10-08T18:06:31.288Z,67.54
2022-10-08T18:09:03.661Z,67.07
2022-10-08T18:11:33.321Z,66.69
2022-10-08T18:14:02.542Z,67.89
2022-10-08T18:16:30.557Z,67.38
2022-10-08T18:18:58.681Z,67.77
2022-10-08T18:21:26.693Z,66.54
2022-10-08T18:23:54.410Z,66.57
2022-10-08T18:26:25.676Z,67.24
2022-10-08T18:28:55.283Z,67.81
2022-10-08T18:31:25.050Z,70.60
2022-10-08T18:33:56.109Z,69.53
2022-10-08T18:36:25.786Z,70.20
2022-10-08T18:38:57.613Z,69.85
2022-10-08T18:41:29.021Z,71.21
2022-10-08T18:43:59.110Z,72.05
2022-10-08T18:46:26.891Z,72.97
2022-10-08T18:48:55.691Z,73.18
2022-10-08T18:51:24.958Z,71.93
2022-10-08T18:53:54.146Z,73.16
2022-10-08T18:56:25.311Z,72.85
2022-10-08T18:58:54.721Z,73.13
2022-10-08T19:01:24.702Z,74.43
2022-10-08T19:03:55.181Z,75.19
2022-10-08T19:06:24.738Z,75.89
2022-10-08T19:08:53.060Z,79.53
2022-10-08T19:11:23.497Z,74.79
2022-10-08T19:13:54.917Z,74.55
2022-10-08T19:16:23.032Z,73.16
2022-10-08T19:18:54.845Z,73.68
2022-10-08T19:21:23.513Z,74.30
2022-10-08T19:23:52.719Z,75.29
2022-10-08T19:26:20.461Z,75.32
2022-10-08T19:28:49.889Z,75.13
2022-10-08T19:31:21.370Z,76.60
2022-10-08T19:33:50.666Z,76.89
2022-10-08T19:36:19.253Z,77.21
2022-10-08T19:38:52.792Z,78.31
2022-10-08T19:41:21.738Z,78.48
2022-10-08T19:43:49.502Z,78.81
2022-10-08T19:46:17.666Z,80.46
2022-10-08T19:48:49.337Z,78.57
2022-10-08T19:51:17.763Z,80.32
2022-10-08T19:53:45.819Z,80.83
2022-10-08T19:56:14.905Z,78.88
2022-10-08T19:58:48.531Z,79.05
2022-10-08T20:01:19.303Z,79.54
2022-10-08T20:03:48.768Z,81.25
2022-10-08T20:06:23.207Z,83.75
2022-10-08T20:08:54.149Z,84.04
2022-10-08T20:11:23.170Z,82.60
2022-10-08T20:13:52.998Z,84.80
2022-10-08T20:16:22.565Z,83.45
2022-10-08T20:18:52.688Z,83.77
2022-10-08T20:21:21.319Z,83.19
2022-10-08T20:23:49.474Z,85.90
2022-10-08T20:26:20.708Z,86.74
2022-10-08T20:28:50.418Z,85.71
2022-10-08T20:31:20.236Z,86.13
2022-10-08T20:33:48.659Z,86.97
2022-10-08T20:36:18.327Z,89.72
2022-10-08T20:38:46.022Z,89.39
2022-10-08T20:41:13.702Z,88.29
2022-10-08T20:43:41.393Z,87.24
2022-10-08T20:46:11.739Z,87.95
2022-10-08T20:48:41.780Z,88.23
2022-10-08T20:51:11.708Z,87.97
2022-10-08T20:53:41.100Z,87.55
2022-10-08T20:56:10.247Z,89.11
2022-10-08T20:58:38.406Z,88.48
2022-10-08T21:01:08.647Z,90.26
2022-10-08T21:03:37.534Z,90.23
2022-10-08T21:06:07.315Z,88.76
2022-10-08T21:08:37.770Z,88.22
2022-10-08T21:11:08.695Z,86.61
2022-10-08T21:13:37.217Z,86.76
2022-10-08T21:16:07.513Z,89.13
2022-10-08T21:18:36.029Z,88.95
2022-10-08T21:21:04.671Z,88.95
2022-10-08T21:23:32.482Z,87.99
2022-10-08T21:26:09.692Z,90.35
2022-10-08T21:28:37.831Z,91.26
2022-10-08T21:31:07.172Z,91.87
2022-10-08T21:33:39.170Z,90.91
2022-10-08T21:36:10.341Z,90.54
2022-10-08T21:38:38.429Z,88.92
2022-10-08T21:41:12.188Z,88.65
2022-10-08T21:43:40.327Z,89.54
2022-10-08T21:46:08.834Z,92.30
2022-10-08T21:48:37.081Z,92.83
2022-10-08T21:51:06.908Z,95.49
2022-10-08T21:53:36.215Z,90.53
2022-10-08T21:56:06.738Z,90.04
2022-10-08T21:58:39.051Z,90.00
2022-10-08T22:01:08.029Z,88.28
2022-10-08T22:03:36.099Z,86.28
2022-10-08T22:06:04.558Z,88.15
2022-10-08T22:08:32.731Z,88.50
2022-10-08T22:11:00.501Z,88.83
2022-10-08T22:13:28.247Z,88.27
2022-10-08T22:15:59.035Z,87.11
2022-10-08T22:18:28.769Z,86.88
2022-10-08T22:20:57.025Z,88.23
2022-10-08T22:23:24.750Z,86.90
2022-10-08T22:25:55.891Z,86.78
2022-10-08T22:28:24.148Z,86.42
2022-10-08T22:30:52.604Z,86.32
2022-10-08T22:33:22.248Z,85.62
2022-10-08T22:35:49.983Z,84.55
2022-10-08T22:38:17.733Z,85.77
2022-10-08T22:40:45.478Z,87.19
2022-10-08T22:43:13.163Z,87.07
2022-10-08T22:45:41.502Z,87.22
2022-10-08T22:48:09.261Z,87.10
2022-10-08T22:50:39.007Z,88.14
2022-10-08T22:53:06.713Z,86.42
2022-10-08T22:55:34.468Z,86.86
2022-10-08T22:58:02.194Z,86.82
2022-10-08T23:00:29.892Z,87.52
2022-10-08T23:02:57.670Z,84.85
2022-10-08T23:05:25.454Z,86.90
2022-10-08T23:07:57.126Z,86.90
2022-10-08T23:10:25.709Z,87.17
2022-10-08T23:12:53.955Z,85.97
2022-10-08T23:15:22.212Z,86.65
2022-10-08T23:17:49.902Z,86.73
2022-10-08T23:20:17.700Z,86.71
2022-10-08T23:22:45.544Z,87.08
2022-10-08T23:25:15.016Z,88.33
2022-10-08T23:27:42.670Z,87.39
2022-10-08T23:30:31.319Z,89.00
2022-10-08T23:32:58.733Z,88.25
2022-10-08T23:35:26.507Z,88.28
2022-10-08T23:37:54.595Z,85.26
2022-10-08T23:40:23.612Z,86.78
2022-10-08T23:42:52.363Z,85.99
2022-10-08T23:45:20.447Z,86.34
2022-10-08T23:47:48.123Z,86.99
2022-10-08T23:50:16.071Z,87.01
2022-10-08T23:52:43.737Z,86.23
2022-10-08T23:55:11.510Z,86.87
2022-10-08T23:57:40.609Z,87.27
